TMP weather

Tampere-Pirkkala Airport
Tampere / Pirkkala, Western Finland, Finland

Public forecast

Using degrees Celsius for public forecast. Weather courtesy of forecast.io.

METAR (pilot weather report)

Retrieved 2019/03/25 19:20 UTC (39 minutes ago):

EFTP 251920Z AUTO 28005KT CAVOK M02/M05 Q1006

TAF (pilot weather forecast)

Retrieved 2019/03/25 18:42 UTC (1 hour ago):

TAF EFTP 251729Z 2518/2618 32007KT 9999 BKN030 BECMG 2606/2608 36011G22KT